createdAt,value
2023-02-11T00:01:35.748Z,83.27
2023-02-11T00:04:38.764Z,82.77
2023-02-11T00:07:41.481Z,83.48
2023-02-11T00:10:46.559Z,83.84
2023-02-11T00:13:49.557Z,84.00
2023-02-11T00:16:52.648Z,84.03
2023-02-11T00:19:55.361Z,83.96
2023-02-11T00:22:58.359Z,84.69
2023-02-11T00:26:01.040Z,85.31
2023-02-11T00:29:05.950Z,84.35
2023-02-11T00:32:09.223Z,86.50
2023-02-11T00:35:12.280Z,85.49
2023-02-11T00:38:15.212Z,83.92
2023-02-11T00:41:18.884Z,84.05
2023-02-11T00:44:21.723Z,86.41
2023-02-11T00:47:24.943Z,85.26
2023-02-11T00:50:27.581Z,85.41
2023-02-11T00:53:32.897Z,84.05
2023-02-11T00:56:36.160Z,83.83
2023-02-11T00:59:39.275Z,83.42
2023-02-11T01:02:42.040Z,83.14
2023-02-11T01:05:45.681Z,84.22
2023-02-11T01:08:48.619Z,83.57
2023-02-11T01:11:51.764Z,84.08
2023-02-11T01:14:54.448Z,83.50
2023-02-11T01:17:57.504Z,82.15
2023-02-11T01:21:00.189Z,84.12
2023-02-11T01:24:03.263Z,82.97
2023-02-11T01:27:06.007Z,83.25
2023-02-11T01:30:12.978Z,83.16
2023-02-11T01:33:15.831Z,83.41
2023-02-11T01:36:18.973Z,84.53
2023-02-11T01:39:21.789Z,84.61
2023-02-11T01:42:25.002Z,84.00
2023-02-11T01:45:48.923Z,83.52
2023-02-11T01:49:09.878Z,84.27
2023-02-11T01:52:20.399Z,84.83
2023-02-11T01:55:42.178Z,85.25
2023-02-11T01:58:47.703Z,85.34
2023-02-11T02:01:57.422Z,85.04
2023-02-11T02:05:17.217Z,84.32
2023-02-11T02:08:23.964Z,84.76
2023-02-11T02:11:27.082Z,84.24
2023-02-11T02:14:29.824Z,84.03
2023-02-11T02:17:47.057Z,83.75
2023-02-11T02:21:26.528Z,83.77
2023-02-11T02:24:47.487Z,84.11
2023-02-11T02:28:19.351Z,83.63
2023-02-11T02:31:31.928Z,83.41
2023-02-11T02:34:52.785Z,83.99
2023-02-11T02:38:20.090Z,82.34
2023-02-11T02:41:28.749Z,82.71
2023-02-11T02:44:32.709Z,82.64
2023-02-11T02:47:35.344Z,83.13
2023-02-11T02:50:38.604Z,82.71
2023-02-11T02:54:02.373Z,82.22
2023-02-11T02:57:45.214Z,83.88
2023-02-11T03:01:18.396Z,83.90
2023-02-11T03:04:30.417Z,85.07
2023-02-11T03:07:45.635Z,84.88
2023-02-11T03:10:52.438Z,84.65
2023-02-11T03:13:56.687Z,84.29
2023-02-11T03:17:03.028Z,83.44
2023-02-11T03:20:10.318Z,84.29
2023-02-11T03:23:24.054Z,83.92
2023-02-11T03:26:40.992Z,83.34
2023-02-11T03:29:55.151Z,83.29
2023-02-11T03:32:59.519Z,83.24
2023-02-11T03:36:15.429Z,84.83
2023-02-11T03:39:33.578Z,84.11
2023-02-11T03:42:42.725Z,83.81
2023-02-11T03:45:48.840Z,83.76
2023-02-11T03:48:58.273Z,83.34
2023-02-11T03:52:02.907Z,83.15
2023-02-11T03:55:18.598Z,83.25
2023-02-11T03:58:21.545Z,84.12
2023-02-11T04:01:24.740Z,83.80
2023-02-11T04:04:27.949Z,83.69
2023-02-11T04:07:31.015Z,83.93
2023-02-11T04:10:34.094Z,84.86
2023-02-11T04:13:36.772Z,84.41
2023-02-11T04:16:40.213Z,85.36
2023-02-11T04:19:42.948Z,84.35
2023-02-11T04:22:46.085Z,84.26
2023-02-11T04:25:52.681Z,85.31
2023-02-11T04:28:55.915Z,84.80
2023-02-11T04:31:58.674Z,85.18
2023-02-11T04:35:03.023Z,84.81
2023-02-11T04:38:05.847Z,85.00
2023-02-11T04:41:09.054Z,85.29
2023-02-11T04:44:11.923Z,84.48
2023-02-11T04:47:15.715Z,84.82
2023-02-11T04:50:18.537Z,84.71
2023-02-11T04:53:22.210Z,85.36
2023-02-11T04:56:25.017Z,84.70
2023-02-11T04:59:28.212Z,85.15
2023-02-11T05:02:30.922Z,84.82
2023-02-11T05:05:34.181Z,83.73
2023-02-11T05:08:36.988Z,83.92
2023-02-11T05:11:40.323Z,83.15
2023-02-11T05:14:43.033Z,83.66
2023-02-11T05:17:46.188Z,85.51
2023-02-11T05:20:49.064Z,86.03
2023-02-11T05:23:52.582Z,86.10
2023-02-11T05:26:55.315Z,85.80
2023-02-11T05:29:58.417Z,85.18
2023-02-11T05:33:01.237Z,85.40
2023-02-11T05:36:07.913Z,84.17
2023-02-11T05:39:10.611Z,82.79
2023-02-11T05:42:14.081Z,82.84
2023-02-11T05:45:16.842Z,82.62
2023-02-11T05:48:20.032Z,82.51
2023-02-11T05:51:25.393Z,82.68
2023-02-11T05:54:28.472Z,83.02
2023-02-11T05:57:31.179Z,83.45
2023-02-11T06:00:34.602Z,83.87
2023-02-11T06:03:38.019Z,83.62
2023-02-11T06:06:41.153Z,83.66
2023-02-11T06:09:44.443Z,83.49
2023-02-11T06:12:47.152Z,83.35
2023-02-11T06:15:58.672Z,83.76
2023-02-11T06:19:01.449Z,86.06
2023-02-11T06:22:04.594Z,85.95
2023-02-11T06:25:07.601Z,85.80
2023-02-11T06:28:10.945Z,85.17
2023-02-11T06:31:15.282Z,85.15
2023-02-11T06:34:18.367Z,84.69
2023-02-11T06:37:21.671Z,83.93
2023-02-11T06:40:24.816Z,82.45
2023-02-11T06:43:27.759Z,83.40
2023-02-11T06:46:31.027Z,83.32
2023-02-11T06:49:33.717Z,83.15
2023-02-11T06:52:36.891Z,82.61
2023-02-11T06:55:39.728Z,82.60
2023-02-11T06:58:42.947Z,81.92
2023-02-11T07:01:45.828Z,81.91
2023-02-11T07:04:49.003Z,81.56
2023-02-11T07:07:51.647Z,81.66
2023-02-11T07:10:54.672Z,82.14
2023-02-11T07:14:02.537Z,82.25
2023-02-11T07:17:06.147Z,81.07
2023-02-11T07:20:09.746Z,81.33
2023-02-11T07:23:12.897Z,81.30
2023-02-11T07:26:18.806Z,80.97
2023-02-11T07:29:21.989Z,80.83
2023-02-11T07:32:24.652Z,81.13
2023-02-11T07:35:27.749Z,81.45
2023-02-11T07:38:31.474Z,80.07
2023-02-11T07:41:37.843Z,80.28
2023-02-11T07:44:41.364Z,80.24
2023-02-11T07:47:44.672Z,81.08
2023-02-11T07:50:47.520Z,80.47
2023-02-11T07:53:52.163Z,80.22
2023-02-11T07:56:54.972Z,79.55
2023-02-11T07:59:58.011Z,79.59
2023-02-11T08:03:00.885Z,79.79
2023-02-11T08:06:14.960Z,78.57
2023-02-11T08:09:18.014Z,79.90
2023-02-11T08:12:21.071Z,77.69
2023-02-11T08:15:23.866Z,77.65
2023-02-11T08:18:26.819Z,77.29
2023-02-11T08:21:30.331Z,76.69
2023-02-11T08:24:33.327Z,74.27
2023-02-11T08:27:36.036Z,73.01
2023-02-11T08:30:39.023Z,73.38
2023-02-11T08:33:42.108Z,71.61
2023-02-11T08:36:46.654Z,72.88
2023-02-11T08:39:49.408Z,68.58
2023-02-11T08:42:52.644Z,70.98
2023-02-11T08:45:55.386Z,67.59
2023-02-11T08:48:58.817Z,67.42
2023-02-11T08:52:04.302Z,66.60
2023-02-11T08:55:07.561Z,65.78
2023-02-11T08:58:10.218Z,63.76
2023-02-11T09:02:50.488Z,59.98
2023-02-11T09:05:53.767Z,59.98
2023-02-11T09:08:58.786Z,60.08
2023-02-11T09:12:01.927Z,59.91
2023-02-11T09:15:05.073Z,62.50
2023-02-11T09:18:08.320Z,61.60
2023-02-11T09:21:11.039Z,61.73
2023-02-11T09:24:15.050Z,61.42
2023-02-11T09:27:17.788Z,62.16
2023-02-11T09:30:21.189Z,60.67
2023-02-11T09:33:24.016Z,61.13
2023-02-11T09:36:38.785Z,62.33
2023-02-11T09:39:41.523Z,62.51
2023-02-11T09:43:01.136Z,62.43
2023-02-11T09:46:05.918Z,61.52
2023-02-11T09:49:20.180Z,61.04
2023-02-11T09:52:53.851Z,59.08
2023-02-11T09:56:00.743Z,59.32
2023-02-11T09:59:04.856Z,57.37
2023-02-11T10:02:28.038Z,57.96
2023-02-11T10:06:06.117Z,56.56
2023-02-11T10:09:30.842Z,55.84
2023-02-11T10:12:55.659Z,54.82
2023-02-11T10:16:01.144Z,53.61
2023-02-11T10:19:22.405Z,53.94
2023-02-11T10:22:31.222Z,51.86
2023-02-11T10:25:38.644Z,54.14
2023-02-11T10:28:46.331Z,53.88
2023-02-11T10:31:51.065Z,52.17
2023-02-11T10:34:58.951Z,50.62
2023-02-11T10:38:01.971Z,50.29
2023-02-11T10:41:05.621Z,51.26
2023-02-11T10:44:08.810Z,48.50
2023-02-11T10:47:27.912Z,46.00
2023-02-11T10:50:37.216Z,44.44
2023-02-11T10:53:40.127Z,45.96
2023-02-11T10:56:53.732Z,45.74
2023-02-11T11:00:06.919Z,44.33
2023-02-11T11:03:22.452Z,43.70
2023-02-11T11:06:33.172Z,43.14
2023-02-11T11:09:48.578Z,41.96
2023-02-11T11:12:51.647Z,42.60
2023-02-11T11:16:33.764Z,41.12
2023-02-11T11:19:39.364Z,41.13
2023-02-11T11:22:43.480Z,41.02
2023-02-11T11:26:24.750Z,40.99
2023-02-11T11:29:35.956Z,41.70
2023-02-11T11:32:42.340Z,41.37
2023-02-11T11:35:59.883Z,40.88
2023-02-11T11:39:17.628Z,40.32
2023-02-11T11:42:32.876Z,39.82
2023-02-11T11:45:35.830Z,39.83
2023-02-11T11:48:42.555Z,41.05
2023-02-11T11:51:55.398Z,41.25
2023-02-11T11:55:16.460Z,41.76
2023-02-11T11:58:22.337Z,41.40
2023-02-11T12:01:57.827Z,41.33
2023-02-11T12:05:23.865Z,41.81
2023-02-11T12:08:48.882Z,42.12
2023-02-11T12:12:19.503Z,42.46
2023-02-11T12:15:56.390Z,42.87
2023-02-11T12:19:30.676Z,41.99
2023-02-11T12:23:12.148Z,40.23
2023-02-11T12:26:20.789Z,39.79
2023-02-11T12:29:45.923Z,41.13
2023-02-11T12:33:05.120Z,41.64
2023-02-11T12:36:47.068Z,41.86
2023-02-11T12:40:12.337Z,42.45
2023-02-11T12:43:26.158Z,43.19
2023-02-11T12:46:36.380Z,43.73
2023-02-11T12:50:07.762Z,43.75
2023-02-11T12:53:17.040Z,43.97
2023-02-11T12:56:39.149Z,43.87
2023-02-11T12:59:42.410Z,43.82
2023-02-11T13:02:51.530Z,42.99
2023-02-11T13:05:59.441Z,43.19
2023-02-11T13:09:07.098Z,43.19
2023-02-11T13:12:32.861Z,44.04
2023-02-11T13:15:36.384Z,43.05
2023-02-11T13:19:14.130Z,42.23
2023-02-11T13:22:25.566Z,41.48
2023-02-11T13:26:10.521Z,40.68
2023-02-11T13:29:21.209Z,41.00
2023-02-11T13:32:24.895Z,40.91
2023-02-11T13:35:35.397Z,41.36
2023-02-11T13:38:39.933Z,42.28
2023-02-11T13:41:45.685Z,41.88
2023-02-11T13:44:49.418Z,41.92
2023-02-11T13:47:58.649Z,42.12
2023-02-11T13:51:07.709Z,42.48
2023-02-11T13:54:39.825Z,42.82
2023-02-11T13:57:43.674Z,42.85
2023-02-11T14:00:50.202Z,43.65
2023-02-11T14:04:45.476Z,43.73
2023-02-11T14:08:29.124Z,43.86
2023-02-11T14:11:37.608Z,43.91
2023-02-11T14:15:19.261Z,43.95
2023-02-11T14:18:39.793Z,44.48
2023-02-11T14:21:44.816Z,44.25
2023-02-11T14:24:55.717Z,44.01
2023-02-11T14:28:25.244Z,44.42
2023-02-11T14:31:47.265Z,44.83
2023-02-11T14:35:15.551Z,45.17
2023-02-11T14:38:41.207Z,45.52
2023-02-11T14:41:48.385Z,45.64
2023-02-11T14:44:56.712Z,45.99
2023-02-11T14:48:18.644Z,46.75
2023-02-11T14:51:31.788Z,46.78
2023-02-11T14:54:35.829Z,46.91
2023-02-11T14:57:40.088Z,47.45
2023-02-11T15:00:59.915Z,47.62
2023-02-11T15:04:07.555Z,48.20
2023-02-11T15:07:13.752Z,49.05
2023-02-11T15:10:30.172Z,48.64
2023-02-11T15:13:35.172Z,49.12
2023-02-11T15:16:45.750Z,49.93
2023-02-11T15:19:55.337Z,49.70
2023-02-11T15:23:03.837Z,50.31
2023-02-11T15:26:15.928Z,50.40
2023-02-11T15:29:24.938Z,50.25
2023-02-11T15:32:28.918Z,51.23
2023-02-11T15:35:32.836Z,52.09
2023-02-11T15:38:37.289Z,51.38
2023-02-11T15:41:43.197Z,51.57
2023-02-11T15:44:54.324Z,52.71
2023-02-11T15:48:08.085Z,52.49
2023-02-11T15:51:34.217Z,52.51
2023-02-11T15:54:40.868Z,52.56
2023-02-11T15:58:04.284Z,52.74
2023-02-11T16:01:10.731Z,52.48
2023-02-11T16:04:21.864Z,52.43
2023-02-11T16:07:48.071Z,52.49
2023-02-11T16:11:03.794Z,52.51
2023-02-11T16:14:29.952Z,52.74
2023-02-11T16:17:35.244Z,53.25
2023-02-11T16:20:42.406Z,53.25
2023-02-11T16:23:54.084Z,53.82
2023-02-11T16:27:05.300Z,54.20
2023-02-11T16:30:33.965Z,54.58
2023-02-11T16:33:40.688Z,54.87
2023-02-11T16:36:50.106Z,55.13
2023-02-11T16:39:59.443Z,55.68
2023-02-11T16:43:04.084Z,56.06
2023-02-11T16:46:09.487Z,56.15
2023-02-11T16:49:23.200Z,56.10
2023-02-11T16:52:27.277Z,56.74
2023-02-11T16:55:32.595Z,56.26
2023-02-11T16:58:36.558Z,56.90
2023-02-11T17:01:45.886Z,56.54
2023-02-11T17:04:50.203Z,55.92
2023-02-11T17:07:54.731Z,56.63
2023-02-11T17:11:00.311Z,56.78
2023-02-11T17:14:06.256Z,56.35
2023-02-11T17:17:11.469Z,56.12
2023-02-11T17:20:16.679Z,56.81
2023-02-11T17:23:20.544Z,55.90
2023-02-11T17:26:28.959Z,56.33
2023-02-11T17:29:40.472Z,56.09
2023-02-11T17:33:00.995Z,57.36
2023-02-11T17:36:17.246Z,56.72
2023-02-11T17:39:26.128Z,57.73
2023-02-11T17:42:32.448Z,57.14
2023-02-11T17:45:45.581Z,57.61
2023-02-11T17:48:53.328Z,57.36
2023-02-11T17:52:00.315Z,57.11
2023-02-11T17:55:06.040Z,56.84
2023-02-11T17:58:13.522Z,56.96
2023-02-11T18:01:18.166Z,57.70
2023-02-11T18:04:22.830Z,57.49
2023-02-11T18:07:27.150Z,58.61
2023-02-11T18:10:31.985Z,57.95
2023-02-11T18:13:35.518Z,58.19
2023-02-11T18:16:45.048Z,58.84
2023-02-11T18:19:49.434Z,58.48
2023-02-11T18:22:54.819Z,58.75
2023-02-11T18:25:59.367Z,59.08
2023-02-11T18:29:08.026Z,58.78
2023-02-11T18:32:16.089Z,58.84
2023-02-11T18:35:24.196Z,59.36
2023-02-11T18:38:29.561Z,58.74
2023-02-11T18:41:36.837Z,58.37
2023-02-11T18:44:40.982Z,58.62
2023-02-11T18:47:56.137Z,58.50
2023-02-11T18:51:00.164Z,58.52
2023-02-11T18:54:09.848Z,58.70
2023-02-11T18:57:13.941Z,58.24
2023-02-11T19:00:18.989Z,58.37
2023-02-11T19:03:23.263Z,59.31
2023-02-11T19:06:30.402Z,59.30
2023-02-11T19:09:34.377Z,58.79
2023-02-11T19:12:51.535Z,59.13
2023-02-11T19:15:55.904Z,60.37
2023-02-11T19:19:00.438Z,60.12
2023-02-11T19:22:10.239Z,59.99
2023-02-11T19:25:15.435Z,60.64
2023-02-11T19:28:22.977Z,60.52
2023-02-11T19:31:28.365Z,60.23
2023-02-11T19:34:34.610Z,60.10
2023-02-11T19:37:39.548Z,59.41
2023-02-11T19:40:43.896Z,59.16
2023-02-11T19:43:53.118Z,59.26
2023-02-11T19:46:57.083Z,59.18
2023-02-11T19:50:02.594Z,58.84
2023-02-11T19:53:07.210Z,58.78
2023-02-11T19:56:14.127Z,58.68
2023-02-11T19:59:17.909Z,58.77
2023-02-11T20:02:22.031Z,58.55
2023-02-11T20:05:27.954Z,58.59
2023-02-11T20:08:34.715Z,58.72
2023-02-11T20:11:42.541Z,58.81
2023-02-11T20:14:48.593Z,58.75
2023-02-11T20:17:57.032Z,59.08
2023-02-11T20:21:03.810Z,59.27
2023-02-11T20:24:08.999Z,59.18
2023-02-11T20:27:13.253Z,59.18
2023-02-11T20:30:19.036Z,59.00
2023-02-11T20:33:23.660Z,60.40
2023-02-11T20:36:32.324Z,60.34
2023-02-11T20:39:42.558Z,60.43
2023-02-11T20:42:50.112Z,60.13
2023-02-11T20:45:56.864Z,60.42
2023-02-11T20:49:04.221Z,60.76
2023-02-11T20:52:08.849Z,60.85
2023-02-11T20:55:23.183Z,61.11
2023-02-11T20:58:26.838Z,60.71
2023-02-11T21:01:36.947Z,61.37
2023-02-11T21:04:42.572Z,61.86
2023-02-11T21:07:47.030Z,62.17
2023-02-11T21:10:53.244Z,62.53
2023-02-11T21:13:58.097Z,62.54
2023-02-11T21:17:02.554Z,63.71
2023-02-11T21:20:09.190Z,64.38
2023-02-11T21:23:12.752Z,64.54
2023-02-11T21:26:18.883Z,65.81
2023-02-11T21:29:22.700Z,65.11
2023-02-11T21:32:27.176Z,66.82
2023-02-11T21:35:36.557Z,68.09
2023-02-11T21:38:40.166Z,68.46
2023-02-11T21:41:43.025Z,68.95
2023-02-11T21:44:47.331Z,69.34
2023-02-11T21:47:50.761Z,69.87
2023-02-11T21:50:55.181Z,69.54
2023-02-11T21:54:01.904Z,69.66
2023-02-11T21:57:05.803Z,70.85
2023-02-11T22:00:11.642Z,70.58
2023-02-11T22:03:15.236Z,70.37
2023-02-11T22:06:27.167Z,71.02
2023-02-11T22:09:30.465Z,71.16
2023-02-11T22:12:33.427Z,71.94
2023-02-11T22:15:36.559Z,72.22
2023-02-11T22:18:39.831Z,71.67
2023-02-11T22:21:43.889Z,72.34
2023-02-11T22:24:46.942Z,72.76
2023-02-11T22:27:50.196Z,72.65
2023-02-11T22:30:55.148Z,72.91
2023-02-11T22:33:58.958Z,72.28
2023-02-11T22:37:02.621Z,72.74
2023-02-11T22:40:06.428Z,72.62
2023-02-11T22:43:09.782Z,72.62
2023-02-11T22:46:16.640Z,72.81
2023-02-11T22:49:21.539Z,72.77
2023-02-11T22:52:24.641Z,72.73
2023-02-11T22:55:27.453Z,72.69
2023-02-11T22:58:30.702Z,72.73
2023-02-11T23:01:33.980Z,72.82
2023-02-11T23:04:37.142Z,72.62
2023-02-11T23:07:39.812Z,72.55
2023-02-11T23:10:42.922Z,72.64
2023-02-11T23:13:46.988Z,72.85
2023-02-11T23:16:50.268Z,72.90
2023-02-11T23:19:52.973Z,72.79
2023-02-11T23:22:56.036Z,72.90
2023-02-11T23:25:58.695Z,73.14
2023-02-11T23:29:01.689Z,73.01
2023-02-11T23:32:04.584Z,73.08
2023-02-11T23:35:07.935Z,73.37
2023-02-11T23:38:10.644Z,73.32
2023-02-11T23:41:14.940Z,73.14
2023-02-11T23:44:17.613Z,73.49
2023-02-11T23:47:20.653Z,73.85
2023-02-11T23:50:23.346Z,73.58
2023-02-11T23:53:26.350Z,73.38
2023-02-11T23:56:29.138Z,73.52
2023-02-11T23:59:32.219Z,73.31
